クアラルンプール国際空港の過去48時間の天気

クアラルンプール国際空港 (Sepang/KL International Airport)

現在時刻: 4/24 23:51 +08 (4/24 15:51 UTC) 以下の時間は現地時間です。

過去48時間のMETAR気象情報
時間 風向 風速(m/s) 視程 気温(℃) 湿度(%) 気圧(hPa) 天気現象
24 23:30 不定 1 10km以上 28 89 1008
24 23:00 不定 1 10km以上 29 84 1008
24 22:30 不定 1 9000m 29 84 1008
24 22:00 静穏 0 9000m 29 89 1007
24 21:30 静穏 0 10km以上 29 89 1007
24 21:00 不定 1 10km以上 29 89 1006
24 20:30 不定 1 10km以上 29 84 1006
24 20:00 西南西 2 10km以上 30 79 1006
24 19:30 不定 1 10km以上 30 79 1006
24 19:00 不定 2 10km以上 30 84 1005
24 18:30 2 10km以上 31 79 1005
24 18:00 3 10km以上 31 79 1005
24 17:30 南南東 3 10km以上 33 71 1005
24 17:00 3 10km以上 35 53 1005
24 16:30 3 10km以上 35 53 1005
24 16:00 5 10km以上 35 50 1005
24 15:30 3 10km以上 34 56 1006
24 15:00 4 10km以上 35 53 1006
24 14:30 4 10km以上 35 50 1007
24 14:00 5 10km以上 35 50 1007
24 13:30 東北東 5 10km以上 35 50 1008
24 13:00 東北東 3 10km以上 34 60 1009
24 12:30 東南東 3 10km以上 33 63 1009
24 12:00 2 10km以上 33 63 1009
24 11:30 不定 2 10km以上 33 63 1010
24 11:00 南東 3 9000m 32 67 1010
24 10:30 南南東 2 9000m 31 75 1010
24 10:00 南東 2 10km以上 30 79 1010
24 09:30 南南東 2 10km以上 29 84 1010
24 09:00 南東 2 10km以上 28 84 1010
24 08:30 不定 2 10km以上 27 89 1009
24 08:00 静穏 0 10km以上 26 94 1009
24 07:30 不定 1 9000m 25 94 1009
24 07:00 静穏 0 9000m 25 94 1008
24 06:30 不定 1 8000m 25 94 1008
24 06:00 北北東 2 9000m 26 89 1008
24 05:30 北東 2 9000m 26 89 1007
24 05:00 不定 2 9000m 26 89 1007
24 04:30 北北東 2 9000m 26 89 1007
24 04:00 北北東 3 8000m 26 94 1008
24 03:30 2 8000m 26 94 1008
24 03:00 不定 1 8000m 26 94 1009
24 02:30 静穏 0 9000m 26 94 1009
24 02:00 不定 1 7000m 26 94 1010 弱い雨
24 01:30 2 9000m 26 94 1010
24 01:00 不定 1 10km以上 26 94 1010
24 00:30 北西 2 10km以上 26 94 1010
24 00:00 東北東 3 10km以上 26 89 1010
23 23:30 東北東 2 10km以上 26 89 1010
23 23:00 東北東 3 9000m 26 94 1009 弱い雨
23 22:30 2 10km以上 27 89 1009
23 22:00 3 10km以上 27 89 1009
23 21:30 東南東 3 10km以上 28 84 1008
23 21:00 南南東 2 10km以上 29 84 1008
23 20:30 不定 1 10km以上 29 84 1007
23 20:00 不定 1 10km以上 29 84 1007
23 19:30 不定 1 9000m 30 79 1007
23 19:00 南南西 2 10km以上 30 79 1006
23 18:30 不定 2 10km以上 30 75 1006
23 18:00 不定 2 10km以上 31 70 1005
23 17:30 不定 2 10km以上 31 70 1005
23 17:00 南南西 3 10km以上 32 67 1005
23 16:30 南南西 3 10km以上 31 70 1005
23 16:00 3 10km以上 32 71 1005
23 15:30 南西 3 10km以上 32 71 1005
23 15:00 南南西 3 10km以上 33 63 1006
23 14:30 南南西 3 10km以上 33 63 1006
23 14:00 不定 2 10km以上 34 60 1007
23 13:30 不定 1 10km以上 34 53 1007
23 13:00 不定 2 10km以上 34 50 1008
23 12:30 不定 2 10km以上 34 50 1008
23 12:00 不定 1 10km以上 33 56 1008
23 11:30 不定 2 10km以上 33 59 1009
23 11:00 不定 2 10km以上 32 59 1009
23 10:30 不定 2 10km以上 31 66 1009
23 10:00 不定 2 10km以上 30 75 1009
23 09:30 東南東 2 10km以上 30 70 1009
23 09:00 不定 1 10km以上 28 84 1008
23 08:30 不定 1 10km以上 27 89 1008
23 08:00 静穏 0 10km以上 27 89 1007
23 07:30 不定 1 10km以上 26 89 1007
23 07:00 静穏 0 10km以上 26 89 1006
23 06:30 静穏 0 9000m 26 94 1006
23 06:00 静穏 0 9000m 26 89 1006
23 05:30 静穏 0 10km以上 26 89 1006
23 05:00 東北東 2 9000m 27 89 1006
23 04:30 静穏 0 9000m 26 94 1006
23 04:00 静穏 0 9000m 26 94 1006
23 03:30 不定 2 9000m 26 94 1006
23 03:00 静穏 0 9000m 27 89 1006
23 02:30 不定 1 9000m 27 89 1006
23 02:00 静穏 0 9000m 27 89 1006
23 01:30 不定 1 9000m 27 89 1007
23 01:00 静穏 0 9000m 27 94 1007
23 00:30 不定 1 9000m 27 94 1007
23 00:00 不定 1 9000m 27 94 1008
WMKK 241530Z VRB02KT 9999 FEW030 SCT140 BKN280 28/26 Q1008 NOSIG
WMKK 241500Z VRB01KT 9999 FEW030 SCT140 BKN280 29/26 Q1008 NOSIG
WMKK 241430Z VRB01KT 9000 FEW030 BKN280 29/26 Q1008 NOSIG
WMKK 241400Z 00000KT 9000 FEW030 BKN280 29/27 Q1007 NOSIG
WMKK 241330Z 00000KT 9999 FEW030 BKN280 29/27 Q1007 NOSIG
WMKK 241300Z VRB01KT 9999 FEW030 BKN280 29/27 Q1006 NOSIG
WMKK 241230Z VRB02KT 9999 FEW030 SCT140 BKN280 29/26 Q1006 NOSIG
WMKK 241200Z 24003KT 200V280 9999 FEW030 SCT140 BKN280 30/26 Q1006 NOSIG
WMKK 241130Z VRB02KT 9999 FEW017CB SCT140 BKN280 30/26 Q1006 NOSIG
WMKK 241100Z VRB03KT 9999 FEW017CB SCT140 BKN280 30/27 Q1005 NOSIG
WMKK 241030Z 17004KT 110V240 9999 FEW018 SCT030 BKN280 31/27 Q1005 NOSIG
WMKK 241000Z 18006KT 110V230 9999 FEW018 SCT140 BKN280 31/27 Q1005 NOSIG
WMKK 240930Z 16006KT 100V240 9999 FEW018 SCT140 BKN280 33/27 Q1005 NOSIG
WMKK 240900Z VRB05G17KT 9999 FEW018 SCT140 BKN280 35/24 Q1005 NOSIG
WMKK 240830Z 09005KT 030V160 9999 SCT018 SCT140 BKN280 35/24 Q1005 NOSIG
WMKK 240800Z 10009KT 050V140 9999 FEW018 SCT140 BKN280 35/23 Q1005 NOSIG
WMKK 240730Z 09006KT 030V150 9999 FEW018 SCT140 BKN280 34/24 Q1006 NOSIG
WMKK 240700Z 09008KT 030V160 9999 FEW018 SCT140 BKN280 35/24 Q1006 NOSIG
WMKK 240630Z 08008KT 020V170 9999 FEW018 SCT140 BKN280 35/23 Q1007 NOSIG
WMKK 240600Z 08010KT 010V150 9999 FEW018 SCT140 BKN280 35/23 Q1007 NOSIG
WMKK 240530Z 07010KT 020V130 9999 FEW018 SCT140 BKN280 35/23 Q1008 NOSIG
WMKK 240500Z 07006KT 360V170 9999 FEW018 SCT140 BKN280 34/25 Q1009 NOSIG
WMKK 240430Z 12005KT 050V170 9999 FEW018 SCT140 BKN280 33/25 Q1009 NOSIG
WMKK 240400Z 10004KT 360V160 9999 FEW018 BKN280 33/25 Q1009 NOSIG
WMKK 240330Z VRB04KT 9999 FEW018 BKN280 33/25 Q1010 NOSIG
WMKK 240300Z 13006KT 070V190 9000 FEW018 BKN280 32/25 Q1010 NOSIG
WMKK 240230Z 15004KT 090V250 9000 FEW018 BKN280 31/26 Q1010 NOSIG
WMKK 240200Z 14004KT 090V240 9999 FEW018 BKN280 30/26 Q1010 NOSIG
WMKK 240130Z 15003KT 080V220 9999 FEW018 BKN280 29/26 Q1010 NOSIG
WMKK 240100Z 14003KT 090V190 9999 FEW018 BKN280 28/25 Q1010 NOSIG
WMKK 240030Z VRB03KT 9999 FEW018 BKN280 27/25 Q1009 NOSIG
WMKK 240000Z 00000KT 9999 FEW018 SCT140 BKN280 26/25 Q1009 NOSIG
WMKK 232330Z VRB01KT 9000 FEW030 SCT140 BKN280 25/24 Q1009 NOSIG
WMKK 232300Z 00000KT 9000 FEW030 SCT140 BKN280 25/24 Q1008 NOSIG
WMKK 232230Z VRB01KT 8000 FEW030 BKN140 25/24 Q1008 NOSIG
WMKK 232200Z 03003KT 320V060 9000 FEW030 BKN140 26/24 Q1008 NOSIG
WMKK 232130Z 04003KT 010V070 9000 FEW030 BKN140 26/24 Q1007 NOSIG
WMKK 232100Z VRB03KT 9000 FEW030 BKN140 26/24 Q1007 NOSIG
WMKK 232030Z 03003KT 360V060 9000 FEW030 BKN140 26/24 Q1007 NOSIG
WMKK 232000Z 02005KT 350V050 8000 FEW030 SCT140 BKN270 26/25 Q1008 NOSIG
WMKK 231930Z 01003KT 310V060 8000 FEW030 SCT140 BKN270 26/25 Q1008 NOSIG
WMKK 231900Z VRB02KT 8000 FEW030 SCT140 BKN270 26/25 Q1009 NOSIG
WMKK 231830Z 00000KT 9000 FEW017CB SCT030 BKN280 26/25 Q1009 NOSIG
WMKK 231800Z VRB02KT 7000 -RA FEW017CB SCT028 BKN270 26/25 Q1010 RERA BECMG 9999 NSW
WMKK 231730Z 36003KT 300V060 9000 FEW017CB SCT140 BKN280 26/25 Q1010 TEMPO 5000 -TSRA
WMKK 231700Z VRB02KT 9999 FEW017CB SCT140 BKN280 26/25 Q1010 TEMPO 5000 -TSRA
WMKK 231630Z 32003KT 290V350 9999 FEW017CB SCT140 BKN280 26/25 Q1010 NOSIG
WMKK 231600Z 06005KT 330V120 9999 FEW017CB SCT030 BKN280 26/24 Q1010 NOSIG
WMKK 231530Z 07004KT 020V120 9999 FEW017CB SCT030 BKN280 26/24 Q1010 NOSIG
WMKK 231500Z 07006KT 010V120 9000 -RA FEW017CB SCT028 BKN270 26/25 Q1009 RETS NOSIG
WMKK 231430Z 10004KT 050V150 9999 FEW017CB SCT030 BKN280 27/25 Q1009 RETS NOSIG
WMKK 231400Z 10006KT 060V160 9999 TS FEW017CB SCT030 BKN280 27/25 Q1009 NOSIG
WMKK 231330Z 12006KT 040V190 9999 TS FEW017CB SCT030 BKN280 28/25 Q1008 NOSIG
WMKK 231300Z 15003KT 120V190 9999 TS FEW017CB SCT030 BKN280 29/26 Q1008 TEMPO 5000 -TSRA
WMKK 231230Z VRB02KT 9999 TS FEW017CB SCT030 BKN280 29/26 Q1007 TEMPO 5000 -TSRA
WMKK 231200Z VRB01KT 9999 TS FEW017CB SCT140 BKN280 29/26 Q1007 NOSIG
WMKK 231130Z VRB02KT 9000 TS FEW017CB SCT140 BKN280 30/26 Q1007 NOSIG
WMKK 231100Z 21003KT 160V250 9999 TS FEW017CB SCT140 BKN280 30/26 Q1006 NOSIG
WMKK 231030Z VRB03KT 9999 TS FEW017CB SCT140 BKN280 30/25 Q1006 NOSIG
WMKK 231000Z VRB03KT 9999 FEW017CB SCT140 BKN280 31/25 Q1005 NOSIG
WMKK 230930Z VRB04KT 9999 FEW017CB SCT140 BKN280 31/25 Q1005 NOSIG
WMKK 230900Z 21005KT 140V270 9999 FEW017CB SCT140 BKN280 32/25 Q1005 NOSIG
WMKK 230830Z 20006KT 150V260 9999 FEW017CB SCT140 BKN280 31/25 Q1005 NOSIG
WMKK 230800Z VRB06KT 9999 FEW017CB SCT018 BKN280 32/26 Q1005 NOSIG
WMKK 230730Z 22006KT 130V290 9999 FEW017CB SCT018 BKN280 32/26 Q1005 NOSIG
WMKK 230700Z 21006KT 140V270 9999 FEW017CB SCT018 BKN280 33/25 Q1006 NOSIG
WMKK 230630Z 21006KT 120V280 9999 SCT018 SCT140 BKN280 33/25 Q1006 NOSIG
WMKK 230600Z VRB03KT 9999 SCT018 SCT140 BKN280 34/25 Q1007 NOSIG
WMKK 230530Z VRB02KT 9999 SCT018 SCT140 BKN280 34/23 Q1007 NOSIG
WMKK 230500Z VRB04KT 9999 SCT018 SCT140 BKN280 34/22 Q1008 NOSIG
WMKK 230430Z VRB04KT 9999 FEW018 SCT140 BKN280 34/22 Q1008 NOSIG
WMKK 230400Z VRB02KT 9999 FEW017CB SCT140 BKN280 33/23 Q1008 NOSIG
WMKK 230330Z VRB03KT 9999 FEW017CB SCT140 BKN280 33/24 Q1009 NOSIG
WMKK 230300Z VRB03KT 9999 FEW017CB SCT140 BKN280 32/23 Q1009 NOSIG
WMKK 230230Z VRB03KT 9999 FEW017CB SCT140 BKN280 31/24 Q1009 NOSIG
WMKK 230200Z VRB03KT 9999 FEW017CB SCT140 BKN280 30/25 Q1009 NOSIG
WMKK 230130Z 11003KT 050V190 9999 FEW017CB SCT140 BKN280 30/24 Q1009 NOSIG
WMKK 230100Z VRB01KT 9999 FEW017CB SCT140 BKN280 28/25 Q1008 NOSIG
WMKK 230030Z VRB02KT 9999 FEW017CB SCT140 BKN280 27/25 Q1008 NOSIG
WMKK 230000Z 00000KT 9999 FEW017CB BKN140 BKN280 27/25 Q1007 NOSIG
WMKK 222330Z VRB01KT 9999 FEW017CB SCT140 BKN280 26/24 Q1007 NOSIG
WMKK 222300Z 00000KT 9999 FEW017CB SCT140 BKN280 26/24 Q1006 NOSIG
WMKK 222230Z 00000KT 9000 FEW017CB BKN280 26/25 Q1006 NOSIG
WMKK 222200Z 00000KT 9000 FEW017CB BKN280 26/24 Q1006 NOSIG
WMKK 222130Z 00000KT 9999 FEW030 BKN280 26/24 Q1006 NOSIG
WMKK 222100Z 06003KT 360V140 9000 FEW030 BKN280 27/25 Q1006 NOSIG
WMKK 222030Z 00000KT 9000 FEW030 BKN280 26/25 Q1006 NOSIG
WMKK 222000Z 00000KT 9000 FEW030 SCT140 BKN280 26/25 Q1006 NOSIG
WMKK 221930Z VRB03KT 9000 FEW030 SCT140 BKN280 26/25 Q1006 NOSIG
WMKK 221900Z 00000KT 9000 FEW030 BKN280 27/25 Q1006 NOSIG
WMKK 221830Z VRB02KT 9000 FEW030 SCT140 BKN280 27/25 Q1006 NOSIG
WMKK 221800Z 00000KT 9000 FEW030 SCT140 BKN280 27/25 Q1006 NOSIG
WMKK 221730Z VRB01KT 9000 FEW017CB SCT140 BKN280 27/25 Q1007 NOSIG
WMKK 221700Z 00000KT 9000 FEW017CB SCT140 BKN280 27/26 Q1007 NOSIG
WMKK 221630Z VRB02KT 9000 FEW017CB SCT140 BKN280 27/26 Q1007 NOSIG
WMKK 221600Z VRB02KT 9000 FEW017CB SCT140 BKN280 27/26 Q1008 NOSIG